Time;durP1;ratioP1;P1;durP2;ratioP2;P2;SDS_P1;SDS_P2;PMS_P1;PMS_P2;Temp;Humidity;BMP_temperature;BMP_pressure;BME280_temperature;BME280_humidity;BME280_pressure;Samples;Min_cycle;Max_cycle;Signal;HPM_P1;HPM_P2
2023/01/05 00:01:56;;;;;;;347.13;188.75;;;2.30;99.90;;;;;;4990453;28;20047;-73
2023/01/05 00:04:24;;;;;;;331.50;174.70;;;2.20;99.90;;;;;;4991266;28;20045;-73
2023/01/05 00:06:52;;;;;;;309.20;164.60;;;2.20;99.90;;;;;;4992702;28;20046;-72
2023/01/05 00:09:21;;;;;;;315.52;172.82;;;2.20;99.90;;;;;;4992141;28;20046;-72
2023/01/05 00:22:57;;;;;;;337.10;197.73;;;2.20;99.90;;;;;;4990249;28;20541;-72
2023/01/05 00:25:27;;;;;;;329.10;187.13;;;2.20;99.90;;;;;;4987679;28;20421;-70
2023/01/05 00:27:57;;;;;;;336.60;187.45;;;2.10;99.90;;;;;;4989659;28;20081;-72
2023/01/05 00:30:27;;;;;;;336.05;183.63;;;2.10;99.90;;;;;;4990805;28;20050;-72
2023/01/05 00:32:54;;;;;;;336.55;179.85;;;2.10;99.90;;;;;;4989364;28;20031;-72
2023/01/05 00:35:22;;;;;;;330.70;171.15;;;2.10;99.90;;;;;;4992194;28;20038;-72
2023/01/05 00:37:50;;;;;;;313.30;154.77;;;2.00;99.90;;;;;;4989464;28;20062;-71
2023/01/05 00:40:22;;;;;;;294.83;153.43;;;2.00;99.90;;;;;;4989445;28;20050;-71
2023/01/05 00:42:50;;;;;;;265.60;138.45;;;1.90;99.90;;;;;;4987204;28;20038;-72
2023/01/05 00:45:20;;;;;;;281.00;151.40;;;1.90;99.90;;;;;;4989387;28;20038;-73
2023/01/05 00:47:50;;;;;;;285.33;153.52;;;1.90;99.90;;;;;;4987286;28;20050;-71
2023/01/05 00:50:19;;;;;;;331.55;179.98;;;1.90;99.90;;;;;;4988254;28;20053;-73
2023/01/05 00:52:47;;;;;;;312.02;180.93;;;1.80;99.90;;;;;;4989611;28;20054;-72
2023/01/05 00:55:14;;;;;;;258.08;144.20;;;1.80;99.90;;;;;;4990283;28;20038;-71
2023/01/05 00:57:42;;;;;;;222.10;123.38;;;1.80;99.90;;;;;;4987989;28;20398;-70
2023/01/05 01:00:14;;;;;;;282.10;160.75;;;1.80;99.90;;;;;;4985357;28;20058;-72
2023/01/05 01:02:43;;;;;;;280.00;153.02;;;1.80;99.90;;;;;;4998427;28;20046;-72
2023/01/05 01:05:12;;;;;;;266.15;150.75;;;1.90;99.90;;;;;;4995413;28;20069;-73
2023/01/05 01:07:40;;;;;;;319.85;178.23;;;1.90;99.90;;;;;;4989730;28;20502;-72
2023/01/05 01:10:09;;;;;;;294.33;152.40;;;2.00;99.90;;;;;;4991699;28;20046;-71
2023/01/05 01:12:36;;;;;;;281.33;147.73;;;1.90;99.90;;;;;;4992403;28;20038;-71
2023/01/05 01:15:04;;;;;;;302.08;160.02;;;1.80;99.90;;;;;;4992027;28;20035;-72
2023/01/05 01:17:32;;;;;;;225.75;123.03;;;1.80;99.90;;;;;;4982887;28;20043;-71
2023/01/05 01:20:01;;;;;;;263.05;143.40;;;1.70;99.90;;;;;;4992675;28;20049;-71
2023/01/05 01:22:29;;;;;;;279.92;152.60;;;1.70;99.90;;;;;;4991384;28;20046;-71
2023/01/05 01:24:56;;;;;;;275.42;156.30;;;1.80;99.90;;;;;;4992829;28;20483;-72
2023/01/05 01:27:24;;;;;;;257.05;145.57;;;1.80;99.90;;;;;;4992015;28;20035;-72
2023/01/05 01:29:51;;;;;;;246.48;141.88;;;1.80;99.90;;;;;;4992047;28;20129;-72
2023/01/05 01:32:20;;;;;;;222.80;125.38;;;1.70;99.90;;;;;;4990924;28;20125;-72
2023/01/05 01:34:48;;;;;;;182.95;102.00;;;1.70;99.90;;;;;;4992368;28;20038;-72
2023/01/05 01:37:17;;;;;;;175.45;96.13;;;1.70;99.90;;;;;;4991344;28;20042;-72
2023/01/05 01:39:49;;;;;;;187.23;100.53;;;1.70;99.90;;;;;;4990929;28;20046;-73
2023/01/05 01:42:22;;;;;;;185.70;107.00;;;1.70;99.90;;;;;;4990945;28;20050;-72
2023/01/05 01:44:59;;;;;;;184.95;100.53;;;1.70;99.90;;;;;;4991469;28;20053;-70
2023/01/05 01:47:42;;;;;;;155.52;88.95;;;1.70;99.90;;;;;;4990994;28;20053;-72
2023/01/05 01:50:15;;;;;;;162.85;90.60;;;1.70;99.90;;;;;;4991981;28;20558;-71
2023/01/05 01:52:46;;;;;;;165.40;88.78;;;1.70;99.90;;;;;;4992010;28;20046;-71
2023/01/05 01:55:14;;;;;;;162.30;89.70;;;1.70;99.90;;;;;;4991198;28;20049;-72
2023/01/05 01:57:42;;;;;;;148.35;85.00;;;1.60;99.90;;;;;;4991585;28;20038;-71
2023/01/05 02:00:13;;;;;;;152.10;81.13;;;1.60;99.90;;;;;;4992321;28;20049;-72
2023/01/05 02:02:51;;;;;;;139.38;78.97;;;1.60;99.90;;;;;;4980821;28;20059;-71
2023/01/05 02:05:25;;;;;;;130.57;69.95;;;1.60;99.90;;;;;;4982551;28;20046;-72
2023/01/05 02:07:55;;;;;;;118.22;64.82;;;1.70;99.90;;;;;;4991528;28;20495;-72
2023/01/05 02:10:36;;;;;;;140.25;67.90;;;1.80;99.90;;;;;;4991238;28;20414;-72
2023/01/05 02:13:15;;;;;;;135.50;67.07;;;1.70;99.90;;;;;;4992078;28;20050;-72
2023/01/05 02:15:50;;;;;;;142.80;66.78;;;1.70;99.90;;;;;;4991270;28;20125;-71
2023/01/05 02:18:33;;;;;;;138.25;67.97;;;1.70;99.90;;;;;;4989123;28;20120;-72
2023/01/05 02:21:21;;;;;;;150.10;74.22;;;1.70;99.90;;;;;;4989625;28;20046;-72
2023/01/05 02:24:28;;;;;;;149.45;79.00;;;1.70;99.90;;;;;;4990127;28;20394;-72
2023/01/05 02:27:31;;;;;;;141.38;75.63;;;1.70;99.90;;;;;;4989529;28;20108;-72
2023/01/05 02:30:31;;;;;;;138.23;72.97;;;1.70;99.90;;;;;;4989294;28;20046;-72
2023/01/05 02:33:08;;;;;;;149.88;73.40;;;1.60;99.90;;;;;;4983739;28;20061;-73
2023/01/05 02:35:40;;;;;;;;;;;1.60;99.90;;;;;;4990919;28;20430;-73
2023/01/05 02:38:14;;;;;;;137.40;76.00;;;1.60;99.90;;;;;;4989483;28;20008;-73
2023/01/05 02:40:47;;;;;;;114.05;68.07;;;1.60;99.90;;;;;;4988126;28;20077;-70
2023/01/05 02:43:20;;;;;;;103.60;60.60;;;1.60;99.90;;;;;;4989421;28;20034;-72
2023/01/05 02:45:47;;;;;;;97.75;55.58;;;1.50;99.90;;;;;;4989013;28;20093;-72
2023/01/05 02:48:17;;;;;;;92.55;50.83;;;1.50;99.90;;;;;;4989583;28;20053;-74
2023/01/05 02:50:49;;;;;;;89.40;50.08;;;1.50;99.90;;;;;;4989335;28;20043;-71
2023/01/05 02:53:21;;;;;;;113.95;58.75;;;1.50;99.90;;;;;;4989629;28;20526;-73
2023/01/05 02:55:52;;;;;;;118.30;61.38;;;1.50;99.90;;;;;;4990759;28;20039;-72
2023/01/05 02:58:23;;;;;;;123.55;60.80;;;1.60;99.90;;;;;;4988476;28;20467;-72
2023/01/05 03:00:55;;;;;;;150.55;74.68;;;1.60;99.90;;;;;;4988492;28;20069;-72
2023/01/05 03:03:30;;;;;;;124.75;65.72;;;1.50;99.90;;;;;;4990540;28;20054;-71
2023/01/05 03:06:01;;;;;;;129.57;66.40;;;1.50;99.90;;;;;;4991229;28;20044;-72
2023/01/05 03:08:32;;;;;;;126.55;64.05;;;1.50;99.90;;;;;;4989763;28;20138;-72
2023/01/05 03:13:59;;;;;;;149.93;76.22;;;1.50;99.90;;;;;;4995858;28;20054;-72
2023/01/05 03:16:31;;;;;;;132.80;74.53;;;1.40;99.90;;;;;;4991653;28;20498;-71
2023/01/05 03:35:59;;;;;;;126.82;66.40;;;1.50;99.90;;;;;;4974639;28;20035;-75
2023/01/05 03:38:31;;;;;;;129.23;65.03;;;1.50;99.90;;;;;;4991151;28;20065;-76
2023/01/05 03:41:07;;;;;;;123.63;63.35;;;1.50;99.90;;;;;;4980160;28;20101;-73
2023/01/05 03:43:36;;;;;;;109.72;62.08;;;1.50;99.90;;;;;;4972860;28;20073;-76
2023/01/05 03:46:11;;;;;;;117.63;64.68;;;1.50;99.90;;;;;;4956235;28;20114;-78
2023/01/05 03:48:39;;;;;;;124.15;66.07;;;1.50;99.90;;;;;;4954337;28;20391;-80
2023/01/05 03:51:09;;;;;;;128.55;65.28;;;1.50;99.90;;;;;;4954334;28;20042;-78
2023/01/05 03:53:39;;;;;;;115.43;60.63;;;1.40;99.90;;;;;;4960976;28;20066;-78
2023/01/05 03:56:07;;;;;;;113.03;62.92;;;1.40;99.90;;;;;;4956514;28;20138;-76
2023/01/05 03:58:35;;;;;;;108.30;60.58;;;1.30;99.90;;;;;;4964632;28;20150;-80
2023/01/05 04:01:03;;;;;;;109.93;61.30;;;1.30;99.90;;;;;;4969686;28;20038;-78
2023/01/05 04:03:31;;;;;;;118.05;63.65;;;1.30;99.90;;;;;;4963426;28;20051;-77
2023/01/05 04:05:58;;;;;;;104.05;62.55;;;1.30;99.90;;;;;;4954487;28;20054;-75
2023/01/05 04:08:32;;;;;;;95.30;56.72;;;1.20;99.90;;;;;;4956053;28;20069;-77
2023/01/05 04:11:11;;;;;;;74.13;45.15;;;1.20;99.90;;;;;;4958897;28;20077;-79
2023/01/05 04:13:39;;;;;;;91.20;50.35;;;1.20;99.90;;;;;;4953664;28;20774;-77
2023/01/05 04:16:07;;;;;;;116.05;59.22;;;1.20;99.90;;;;;;4969276;28;20042;-78
2023/01/05 04:18:36;;;;;;;138.85;65.30;;;1.40;99.90;;;;;;4959737;28;20061;-78
2023/01/05 04:21:04;;;;;;;123.15;63.97;;;1.30;99.90;;;;;;4953912;28;20050;-78
2023/01/05 04:23:34;;;;;;;107.88;52.65;;;1.30;99.90;;;;;;4971120;28;20134;-77
2023/01/05 04:26:04;;;;;;;90.55;50.00;;;1.30;99.90;;;;;;4954579;28;20050;-78
2023/01/05 04:28:33;;;;;;;89.50;50.55;;;1.30;99.90;;;;;;4950875;29;20051;-78
2023/01/05 04:31:02;;;;;;;102.28;53.42;;;1.30;99.90;;;;;;4953680;28;20062;-78
2023/01/05 04:33:31;;;;;;;105.15;55.40;;;1.10;99.90;;;;;;4972184;28;20079;-77
2023/01/05 04:35:58;;;;;;;107.53;58.08;;;1.10;99.90;;;;;;4986748;28;20122;-78
2023/01/05 04:38:29;;;;;;;114.10;62.58;;;1.20;99.90;;;;;;4949812;29;20050;-76
2023/01/05 04:40:59;;;;;;;138.18;76.63;;;1.20;99.90;;;;;;4942820;28;20048;-77
2023/01/05 04:43:27;;;;;;;126.45;67.50;;;1.20;99.90;;;;;;4952712;28;20504;-78
2023/01/05 04:45:59;;;;;;;113.55;60.20;;;1.20;99.90;;;;;;4953777;29;20047;-78
2023/01/05 04:48:26;;;;;;;116.40;57.47;;;1.20;99.90;;;;;;4954373;29;20051;-79
2023/01/05 04:50:55;;;;;;;97.88;50.42;;;1.20;99.90;;;;;;4954256;29;20043;-78
2023/01/05 04:53:29;;;;;;;99.45;50.40;;;1.40;99.90;;;;;;4954730;29;20049;-79
2023/01/05 04:55:58;;;;;;;99.22;47.47;;;1.50;99.90;;;;;;4953610;29;20039;-79
2023/01/05 04:58:26;;;;;;;107.30;51.88;;;1.40;99.90;;;;;;4953655;29;20047;-77
2023/01/05 05:00:58;;;;;;;111.28;51.17;;;1.40;99.90;;;;;;4953397;28;20397;-77
2023/01/05 05:03:29;;;;;;;153.90;69.65;;;1.40;99.90;;;;;;4971619;28;20505;-79
2023/01/05 05:05:58;;;;;;;151.60;71.18;;;1.30;99.90;;;;;;4952844;29;20070;-76
2023/01/05 05:08:30;;;;;;;121.40;56.25;;;1.30;99.90;;;;;;4955743;29;20047;-75
2023/01/05 05:11:01;;;;;;;142.48;66.75;;;1.30;99.90;;;;;;4968687;29;20043;-77
2023/01/05 05:13:31;;;;;;;117.15;54.17;;;1.30;99.90;;;;;;4964289;29;20058;-77
2023/01/05 05:16:00;;;;;;;163.02;71.07;;;1.20;99.90;;;;;;4961880;29;20138;-80
2023/01/05 05:18:29;;;;;;;144.35;61.10;;;1.30;99.90;;;;;;4953852;29;20040;-77
2023/01/05 05:20:56;;;;;;;160.77;73.90;;;1.20;99.90;;;;;;4953992;29;20051;-79
2023/01/05 05:23:29;;;;;;;149.40;69.88;;;1.20;99.90;;;;;;4954161;29;20532;-79
2023/01/05 05:25:58;;;;;;;136.27;63.63;;;1.10;99.90;;;;;;4953246;29;20054;-77
2023/01/05 05:28:28;;;;;;;164.82;72.32;;;1.10;99.90;;;;;;4956287;28;20066;-79
2023/01/05 05:30:55;;;;;;;187.77;85.13;;;1.20;99.90;;;;;;4973157;28;20047;-78
2023/01/05 05:33:23;;;;;;;172.85;79.20;;;1.20;99.90;;;;;;4974743;28;20038;-78
2023/01/05 05:35:52;;;;;;;156.95;71.60;;;1.30;99.90;;;;;;4974900;28;20043;-77
2023/01/05 05:38:19;;;;;;;156.55;76.72;;;1.30;99.90;;;;;;4976404;28;20055;-78
2023/01/05 05:40:48;;;;;;;167.65;77.32;;;1.30;99.90;;;;;;4979672;28;20049;-76
2023/01/05 05:43:16;;;;;;;175.95;83.68;;;1.30;99.90;;;;;;4982559;28;20043;-76
2023/01/05 05:45:45;;;;;;;155.88;74.97;;;1.20;99.90;;;;;;4980088;28;20062;-79
2023/01/05 05:48:12;;;;;;;150.30;74.93;;;1.20;99.90;;;;;;4974591;28;20050;-79
2023/01/05 05:50:40;;;;;;;148.82;72.07;;;1.20;99.90;;;;;;4973668;28;20046;-76
2023/01/05 05:53:07;;;;;;;142.38;72.57;;;1.20;99.90;;;;;;4973502;28;20050;-78
2023/01/05 05:55:35;;;;;;;142.25;70.75;;;1.20;26.70;;;;;;4972166;28;20047;-78
2023/01/05 05:58:02;;;;;;;134.52;70.82;;;1.10;1.00;;;;;;4962026;28;20518;-78
2023/01/05 06:00:30;;;;;;;131.05;71.07;;;1.20;1.00;;;;;;4972395;28;20083;-78
2023/01/05 06:02:59;;;;;;;163.45;86.53;;;1.10;1.00;;;;;;4973468;28;20050;-79
2023/01/05 06:05:26;;;;;;;143.35;77.40;;;1.00;1.00;;;;;;4972755;28;20498;-79
2023/01/05 06:07:54;;;;;;;103.00;60.40;;;0.90;99.90;;;;;;4972399;28;20043;-78
2023/01/05 06:10:21;;;;;;;110.32;63.72;;;1.00;99.90;;;;;;4973493;28;20126;-76
2023/01/05 06:12:49;;;;;;;148.65;82.50;;;1.10;99.90;;;;;;4976674;28;20039;-77
2023/01/05 06:15:16;;;;;;;159.52;90.78;;;1.10;99.90;;;;;;4995164;28;20031;-79
2023/01/05 06:17:45;;;;;;;183.93;103.28;;;1.10;99.90;;;;;;4982677;28;20043;-79
2023/01/05 06:20:15;;;;;;;189.85;103.72;;;1.10;99.90;;;;;;4973416;28;20054;-77
2023/01/05 06:22:42;;;;;;;189.70;104.57;;;1.10;99.90;;;;;;4973798;28;20047;-79
2023/01/05 06:25:11;;;;;;;178.60;96.60;;;1.10;99.90;;;;;;4974341;28;20074;-80
2023/01/05 06:27:39;;;;;;;159.25;89.25;;;1.20;99.90;;;;;;4971481;28;20435;-76
2023/01/05 06:30:08;;;;;;;153.02;86.05;;;1.20;99.90;;;;;;4971329;28;20427;-78
2023/01/05 06:32:36;;;;;;;156.65;90.22;;;1.20;99.90;;;;;;4972035;28;20045;-79
2023/01/05 06:35:03;;;;;;;164.35;94.70;;;1.30;99.90;;;;;;4972039;28;20509;-76
2023/01/05 06:37:32;;;;;;;139.90;78.22;;;1.30;99.90;;;;;;4958443;28;20043;-76
2023/01/05 06:40:00;;;;;;;134.80;68.25;;;1.30;99.90;;;;;;4974860;28;20062;-76
2023/01/05 06:42:27;;;;;;;179.73;91.78;;;1.40;99.90;;;;;;4982575;28;20045;-78
2023/01/05 06:44:55;;;;;;;173.80;92.55;;;1.30;99.90;;;;;;4972002;28;20042;-74
2023/01/05 06:47:23;;;;;;;206.73;110.20;;;1.40;99.90;;;;;;4972831;28;20125;-77
2023/01/05 06:49:50;;;;;;;187.23;106.32;;;1.40;99.90;;;;;;4972353;28;20046;-78
2023/01/05 06:52:18;;;;;;;161.27;95.10;;;1.40;99.90;;;;;;4974133;28;20122;-75
2023/01/05 06:54:47;;;;;;;155.95;87.20;;;1.50;99.90;;;;;;4956447;28;20049;-77
2023/01/05 06:57:14;;;;;;;156.68;88.35;;;1.60;99.90;;;;;;4978786;28;20113;-79
2023/01/05 06:59:42;;;;;;;116.75;66.47;;;1.70;99.90;;;;;;4971947;28;20061;-78
2023/01/05 07:02:14;;;;;;;112.20;62.63;;;1.90;99.90;;;;;;4977634;28;20053;-75
2023/01/05 07:04:41;;;;;;;145.82;78.90;;;2.10;99.90;;;;;;4990823;28;20064;-78
2023/01/05 07:07:11;;;;;;;172.27;90.05;;;2.40;99.90;;;;;;4992298;28;20039;-75
2023/01/05 07:09:39;;;;;;;150.68;82.35;;;2.60;99.90;;;;;;4992856;28;20043;-77
2023/01/05 07:12:08;;;;;;;174.75;92.57;;;2.80;99.90;;;;;;4987034;28;20069;-77
2023/01/05 07:14:36;;;;;;;179.07;101.50;;;3.00;1.00;;;;;;4983973;28;20046;-75
2023/01/05 07:17:04;;;;;;;184.95;104.55;;;3.00;1.00;;;;;;4977663;28;20046;-77
2023/01/05 07:19:33;;;;;;;181.68;99.13;;;3.10;1.00;;;;;;4974963;28;20039;-74
2023/01/05 07:22:00;;;;;;;161.25;89.97;;;3.20;8.70;;;;;;4959707;28;20097;-76
2023/01/05 07:24:27;;;;;;;127.70;70.10;;;3.30;40.80;;;;;;4972889;28;20490;-77
2023/01/05 07:26:55;;;;;;;140.65;76.57;;;3.40;1.00;;;;;;4973087;28;20039;-76
2023/01/05 07:29:24;;;;;;;129.20;67.53;;;3.50;1.00;;;;;;4971457;28;20055;-78
2023/01/05 07:31:53;;;;;;;136.43;76.40;;;3.30;1.80;;;;;;4970692;28;20039;-78
2023/01/05 07:34:20;;;;;;;126.38;70.93;;;3.20;1.00;;;;;;4971923;28;20055;-78
2023/01/05 07:36:48;;;;;;;140.23;76.85;;;3.20;1.00;;;;;;4972417;28;20066;-78
2023/01/05 07:39:16;;;;;;;195.35;104.57;;;3.20;99.90;;;;;;4971863;28;20307;-77
2023/01/05 07:41:44;;;;;;;203.45;114.22;;;3.30;99.90;;;;;;4973312;28;20057;-76
2023/01/05 07:44:12;;;;;;;233.48;131.85;;;3.30;99.90;;;;;;4975571;28;20039;-78
2023/01/05 07:46:41;;;;;;;231.70;130.90;;;3.30;1.00;;;;;;4977574;28;20498;-77
2023/01/05 07:49:10;;;;;;;221.85;121.00;;;3.30;1.00;;;;;;4981645;28;20043;-77
2023/01/05 07:51:38;;;;;;;165.13;96.55;;;3.10;99.90;;;;;;4963692;28;20050;-78
2023/01/05 07:54:05;;;;;;;209.13;114.60;;;3.10;1.00;;;;;;4985912;28;20544;-76
2023/01/05 07:56:33;;;;;;;187.20;108.47;;;3.10;1.00;;;;;;4984635;28;20074;-77
2023/01/05 07:59:01;;;;;;;171.18;95.55;;;3.20;1.00;;;;;;4985323;28;20049;-76
2023/01/05 08:01:28;;;;;;;130.98;78.00;;;3.20;1.00;;;;;;4984781;28;20394;-76
2023/01/05 08:03:57;;;;;;;150.52;89.10;;;3.20;1.00;;;;;;4984244;28;20047;-76
2023/01/05 08:06:25;;;;;;;142.70;85.68;;;3.30;99.90;;;;;;4973898;28;20034;-76
2023/01/05 08:08:52;;;;;;;172.77;98.00;;;3.40;1.00;;;;;;4976664;28;20050;-78
2023/01/05 08:11:20;;;;;;;210.10;119.10;;;3.40;99.90;;;;;;4982370;28;20051;-78
2023/01/05 08:14:02;;;;;;;217.40;124.10;;;3.40;1.00;;;;;;4972635;28;20047;-75
2023/01/05 08:16:31;;;;;;;237.13;138.52;;;3.30;99.90;;;;;;4971096;28;20047;-75
2023/01/05 08:19:00;;;;;;;230.27;131.20;;;3.30;1.00;;;;;;4953731;28;20050;-74
2023/01/05 08:21:28;;;;;;;248.80;136.30;;;3.40;99.90;;;;;;4972799;28;20042;-76
2023/01/05 08:23:58;;;;;;;260.83;149.68;;;3.50;99.90;;;;;;4972662;28;20110;-77
2023/01/05 08:26:26;;;;;;;256.58;146.50;;;3.50;99.90;;;;;;4972704;28;20058;-76
2023/01/05 08:29:01;;;;;;;242.65;137.38;;;3.60;1.00;;;;;;4951804;28;20416;-76
2023/01/05 08:31:54;;;;;;;211.77;119.97;;;3.70;1.00;;;;;;4953351;29;20047;-81
2023/01/05 08:34:22;;;;;;;201.10;116.97;;;3.90;1.00;;;;;;4952275;29;20102;-77
2023/01/05 08:36:50;;;;;;;191.52;113.00;;;4.00;99.90;;;;;;4952800;28;20130;-77
2023/01/05 08:39:17;;;;;;;200.75;124.93;;;4.10;99.90;;;;;;4951735;29;20051;-77
2023/01/05 08:41:44;;;;;;;182.63;109.88;;;4.20;1.00;;;;;;4951203;29;20501;-75
2023/01/05 08:44:14;;;;;;;174.98;101.57;;;4.40;1.00;;;;;;4953819;29;20044;-78
2023/01/05 08:46:41;;;;;;;166.23;101.28;;;4.60;1.00;;;;;;4965333;29;20194;-78
2023/01/05 08:49:10;;;;;;;200.23;119.22;;;4.80;1.00;;;;;;4967707;28;20043;-77
2023/01/05 08:51:38;;;;;;;221.23;134.80;;;5.00;1.00;;;;;;4967619;29;20040;-76
2023/01/05 08:54:06;;;;;;;201.43;120.43;;;5.20;1.00;;;;;;4963267;28;20507;-75
2023/01/05 08:56:33;;;;;;;198.85;115.65;;;5.30;1.00;;;;;;4956855;29;20040;-75
2023/01/05 08:59:01;;;;;;;215.60;131.05;;;5.50;1.00;;;;;;4960975;28;20130;-77
2023/01/05 09:01:30;;;;;;;230.38;137.05;;;5.70;1.00;;;;;;4962598;29;20324;-77
2023/01/05 09:03:57;;;;;;;330.10;155.20;;;5.80;99.90;;;;;;4963678;29;20047;-74
2023/01/05 09:06:24;;;;;;;395.00;181.48;;;6.00;99.90;;;;;;4962536;29;20047;-77
2023/01/05 09:08:53;;;;;;;381.52;179.18;;;6.20;73.10;;;;;;4961758;29;20049;-76
2023/01/05 09:11:23;;;;;;;294.17;152.48;;;6.30;1.00;;;;;;4962083;29;20063;-75
2023/01/05 09:13:52;;;;;;;286.48;144.32;;;6.40;1.00;;;;;;4965433;29;20035;-78
2023/01/05 09:16:21;;;;;;;266.33;136.25;;;6.60;1.00;;;;;;4968204;29;20165;-78
2023/01/05 09:18:50;;;;;;;203.85;108.28;;;6.80;1.00;;;;;;4967737;28;20110;-76
2023/01/05 09:21:18;;;;;;;212.95;113.53;;;6.90;99.90;;;;;;4967397;29;20062;-76
2023/01/05 09:23:46;;;;;;;210.85;115.63;;;7.00;99.90;;;;;;4967329;29;20611;-76
2023/01/05 09:26:15;;;;;;;198.30;111.30;;;7.20;99.90;;;;;;4958798;28;20039;-76
2023/01/05 09:28:44;;;;;;;199.30;115.13;;;7.30;99.90;;;;;;4957866;28;20072;-77
2023/01/05 09:31:13;;;;;;;194.57;114.40;;;7.40;99.90;;;;;;4975476;28;20065;-76
2023/01/05 09:33:41;;;;;;;177.27;106.97;;;7.50;99.90;;;;;;4981725;28;20029;-75
2023/01/05 09:36:21;;;;;;;182.15;105.25;;;7.60;99.90;;;;;;4990215;28;20053;-76
2023/01/05 09:38:49;;;;;;;155.35;89.93;;;7.60;99.90;;;;;;4956968;28;20046;-75
2023/01/05 09:41:26;;;;;;;151.65;89.82;;;7.80;99.90;;;;;;4974410;28;20509;-75
2023/01/05 09:43:57;;;;;;;139.15;85.40;;;7.90;99.90;;;;;;4976509;28;20054;-75
2023/01/05 09:46:32;;;;;;;121.90;72.53;;;8.00;99.90;;;;;;4974211;28;20377;-75
2023/01/05 09:49:03;;;;;;;136.43;80.30;;;8.20;1.00;;;;;;4973046;28;20082;-76
2023/01/05 09:51:33;;;;;;;123.20;74.30;;;8.40;1.00;;;;;;4974571;28;20550;-72
2023/01/05 09:54:01;;;;;;;121.60;75.47;;;8.60;1.00;;;;;;4974877;28;20045;-76
2023/01/05 09:56:33;;;;;;;121.28;73.90;;;8.80;1.00;;;;;;4974101;28;20046;-74
2023/01/05 09:59:06;;;;;;;125.55;77.95;;;9.00;1.00;;;;;;4974377;28;20043;-77
2023/01/05 10:01:35;;;;;;;125.15;76.78;;;9.20;1.00;;;;;;4974478;28;20039;-76
2023/01/05 10:04:06;;;;;;;92.57;58.25;;;9.20;99.90;;;;;;4972389;28;20039;-80
2023/01/05 10:06:37;;;;;;;101.28;60.13;;;9.50;99.90;;;;;;4973020;28;20158;-77
2023/01/05 10:09:08;;;;;;;105.03;63.45;;;9.70;99.90;;;;;;4975698;28;20049;-75
2023/01/05 10:14:37;;;;;;;94.85;57.00;;;10.00;1.00;;;;;;4974872;28;20046;-78
2023/01/05 10:17:12;;;;;;;82.47;51.88;;;10.10;1.00;;;;;;4972897;28;20050;-75
2023/01/05 10:19:40;;;;;;;73.60;45.30;;;10.20;1.00;;;;;;4972718;28;20042;-76
2023/01/05 10:22:23;;;;;;;69.47;41.45;;;10.40;1.00;;;;;;4979404;28;20041;-76
2023/01/05 10:24:55;;;;;;;66.22;40.22;;;10.50;1.00;;;;;;4983839;28;20376;-78
2023/01/05 10:27:27;;;;;;;61.03;37.78;;;10.60;1.00;;;;;;4982579;28;20053;-77
2023/01/05 10:30:05;;;;;;;58.88;35.55;;;10.70;1.00;;;;;;4974534;28;20518;-77
2023/01/05 10:32:40;;;;;;;53.20;32.47;;;10.80;1.00;;;;;;4972204;28;20051;-77
2023/01/05 10:35:25;;;;;;;50.80;29.30;;;10.90;1.00;;;;;;4955527;28;20073;-76
2023/01/05 10:38:09;;;;;;;48.67;31.95;;;11.00;1.00;;;;;;4967740;28;20285;-76
2023/01/05 10:40:49;;;;;;;46.92;29.40;;;11.00;1.00;;;;;;4954873;28;20074;-76
2023/01/05 10:43:41;;;;;;;53.03;31.00;;;11.00;1.00;;;;;;4972087;28;20046;-77
2023/01/05 10:46:12;;;;;;;47.65;29.58;;;11.10;1.00;;;;;;4963999;28;20067;-76
2023/01/05 10:48:40;;;;;;;54.90;36.05;;;11.20;1.00;;;;;;4961251;28;20058;-76
2023/01/05 10:51:09;;;;;;;53.08;35.05;;;11.40;1.00;;;;;;4992117;28;20061;-76
2023/01/05 10:53:40;;;;;;;54.38;34.05;;;11.50;1.00;;;;;;4979019;28;20514;-77
2023/01/05 10:56:14;;;;;;;58.63;35.08;;;11.60;1.00;;;;;;4972019;28;20043;-76
2023/01/05 10:58:45;;;;;;;51.63;30.50;;;11.70;1.00;;;;;;4954495;28;20360;-76
2023/01/05 11:01:23;;;;;;;43.45;27.67;;;11.70;1.00;;;;;;4970668;28;20129;-76
2023/01/05 11:03:55;;;;;;;42.40;26.50;;;11.80;1.00;;;;;;4971545;28;20042;-75
2023/01/05 11:06:29;;;;;;;37.35;23.80;;;11.90;1.00;;;;;;4970236;28;20038;-76
2023/01/05 11:09:06;;;;;;;37.05;23.25;;;12.00;1.00;;;;;;4971361;28;20035;-75
2023/01/05 11:11:35;;;;;;;42.90;24.65;;;12.10;1.00;;;;;;4971917;28;20039;-77
2023/01/05 11:14:06;;;;;;;56.28;32.95;;;12.20;1.00;;;;;;4975984;28;20050;-75
2023/01/05 11:16:37;;;;;;;58.72;37.13;;;12.30;1.00;;;;;;4973679;28;20043;-75
2023/01/05 11:19:07;;;;;;;78.47;50.03;;;12.40;1.00;;;;;;4981278;28;20043;-74
2023/01/05 11:21:44;;;;;;;84.93;52.60;;;12.50;1.00;;;;;;4983702;28;20051;-76
2023/01/05 11:24:27;;;;;;;93.45;54.08;;;12.60;1.00;;;;;;4976665;28;20050;-75
2023/01/05 11:26:57;;;;;;;77.82;46.83;;;12.60;1.00;;;;;;4977335;28;20400;-76
2023/01/05 11:29:26;;;;;;;69.68;43.72;;;12.60;1.00;;;;;;4972036;28;20111;-76
2023/01/05 11:31:57;;;;;;;64.72;40.22;;;12.70;1.00;;;;;;4971828;28;20053;-75
2023/01/05 11:34:34;;;;;;;54.38;33.90;;;12.70;1.00;;;;;;4971971;28;20244;-75
2023/01/05 11:37:04;;;;;;;51.42;31.33;;;12.70;1.00;;;;;;4971067;28;20132;-76
2023/01/05 11:39:35;;;;;;;55.00;33.10;;;12.70;1.00;;;;;;4969112;28;20511;-77
2023/01/05 11:42:12;;;;;;;53.17;34.75;;;12.80;1.00;;;;;;4971584;28;20049;-73
2023/01/05 11:44:43;;;;;;;55.30;34.70;;;12.80;1.00;;;;;;4978466;28;20134;-74
2023/01/05 11:47:23;;;;;;;62.70;38.03;;;12.80;1.00;;;;;;4977883;28;20133;-77
2023/01/05 11:50:02;;;;;;;66.00;39.28;;;12.90;1.00;;;;;;4970734;28;20042;-75
2023/01/05 11:52:35;;;;;;;64.00;39.15;;;12.90;1.00;;;;;;4954857;28;20049;-76
2023/01/05 11:55:33;;;;;;;61.08;36.58;;;13.00;1.00;;;;;;4972300;28;20086;-77
2023/01/05 11:58:25;;;;;;;58.53;34.33;;;13.00;1.00;;;;;;4972310;28;20062;-76
2023/01/05 12:01:32;;;;;;;53.50;34.63;;;13.20;1.00;;;;;;4952282;28;20097;-78
2023/01/05 12:04:03;;;;;;;57.88;37.55;;;13.20;1.00;;;;;;4971613;28;20049;-76
2023/01/05 12:07:00;;;;;;;74.20;44.58;;;13.30;1.00;;;;;;4971097;28;20038;-76
2023/01/05 12:09:32;;;;;;;68.35;43.42;;;13.30;1.00;;;;;;4954147;28;20047;-76
2023/01/05 12:12:14;;;;;;;76.68;46.67;;;13.40;1.00;;;;;;4972413;28;20082;-78
2023/01/05 12:14:54;;;;;;;75.72;51.08;;;13.50;1.00;;;;;;4953015;28;20574;-75
2023/01/05 12:17:42;;;;;;;70.88;46.10;;;13.50;1.00;;;;;;4970587;28;20545;-78
2023/01/05 12:20:43;;;;;;;75.60;46.25;;;13.60;1.00;;;;;;4970416;28;20049;-77
2023/01/05 12:23:36;;;;;;;68.35;43.22;;;13.60;1.00;;;;;;4971354;28;20054;-75
2023/01/05 12:26:18;;;;;;;69.78;45.80;;;13.70;1.00;;;;;;4979103;28;21204;-75
2023/01/05 12:29:18;;;;;;;65.20;38.53;;;13.80;1.00;;;;;;4985657;28;20066;-76
2023/01/05 12:32:06;;;;;;;63.47;40.05;;;13.80;1.00;;;;;;4982369;28;20065;-76
2023/01/05 12:35:18;;;;;;;55.63;35.15;;;14.00;1.00;;;;;;4970760;28;20031;-76
2023/01/05 12:38:01;;;;;;;52.60;33.72;;;14.10;1.00;;;;;;4891917;29;20384;-77
2023/01/05 12:40:45;;;;;;;47.03;29.30;;;14.20;1.00;;;;;;4961291;28;20066;-78
2023/01/05 12:43:19;;;;;;;44.22;26.90;;;14.30;1.00;;;;;;4954250;28;20086;-76
2023/01/05 12:46:06;;;;;;;45.03;27.67;;;14.60;1.00;;;;;;4953937;28;20660;-77
2023/01/05 12:48:38;;;;;;;54.33;30.48;;;14.60;1.00;;;;;;4968490;28;20031;-78
2023/01/05 12:51:12;;;;;;;46.33;29.83;;;14.50;1.00;;;;;;4971470;28;20047;-78
2023/01/05 12:53:49;;;;;;;45.95;30.40;;;14.40;1.00;;;;;;4971207;28;20051;-75
2023/01/05 12:56:25;;;;;;;42.17;25.02;;;14.40;1.00;;;;;;4985564;28;20043;-75
2023/01/05 12:59:18;;;;;;;41.53;25.40;;;14.40;1.00;;;;;;4992108;28;20043;-76
2023/01/05 13:01:52;;;;;;;33.50;22.90;;;14.40;1.00;;;;;;4989134;28;20077;-76
2023/01/05 13:04:36;;;;;;;38.72;23.92;;;14.40;1.00;;;;;;4956941;28;20045;-76
2023/01/05 13:07:09;;;;;;;44.05;27.42;;;14.50;1.00;;;;;;4975200;28;20042;-78
2023/01/05 13:09:39;;;;;;;40.58;26.25;;;14.60;1.00;;;;;;4972520;28;20066;-76
2023/01/05 13:12:11;;;;;;;44.15;26.70;;;14.60;1.00;;;;;;4974239;28;20045;-77
2023/01/05 13:14:51;;;;;;;46.58;27.42;;;14.50;1.00;;;;;;4962733;28;20082;-77
2023/01/05 13:17:26;;;;;;;46.13;26.25;;;14.50;1.00;;;;;;4976557;28;20105;-75
2023/01/05 13:20:01;;;;;;;45.50;27.52;;;14.60;1.00;;;;;;4976767;28;20443;-77
2023/01/05 13:22:33;;;;;;;44.45;26.85;;;14.60;1.00;;;;;;4950226;28;20065;-75
2023/01/05 13:25:12;;;;;;;51.70;28.73;;;14.60;1.00;;;;;;4980347;28;20515;-76
2023/01/05 13:27:41;;;;;;;50.38;28.70;;;14.50;1.00;;;;;;4988915;28;20035;-80